sensor_id;sensor_type;location;lat;lon;timestamp;P1;durP1;ratioP1;P2;durP2;ratioP2
68192;SDS011;55012;47.562;18.414;2024-02-26T00:02:07;48.72;;;21.33;;
68192;SDS011;55012;47.562;18.414;2024-02-26T00:04:33;50.35;;;21.88;;
68192;SDS011;55012;47.562;18.414;2024-02-26T00:06:58;47.83;;;21.27;;
68192;SDS011;55012;47.562;18.414;2024-02-26T00:09:23;48.50;;;20.90;;
68192;SDS011;55012;47.562;18.414;2024-02-26T00:11:49;49.60;;;21.38;;
68192;SDS011;55012;47.562;18.414;2024-02-26T00:14:14;48.33;;;21.48;;
68192;SDS011;55012;47.562;18.414;2024-02-26T00:16:40;45.72;;;20.85;;
68192;SDS011;55012;47.562;18.414;2024-02-26T00:19:06;44.88;;;20.50;;
68192;SDS011;55012;47.562;18.414;2024-02-26T00:21:31;43.42;;;19.95;;
68192;SDS011;55012;47.562;18.414;2024-02-26T00:23:57;49.70;;;20.38;;
68192;SDS011;55012;47.562;18.414;2024-02-26T00:26:22;40.85;;;20.00;;
68192;SDS011;55012;47.562;18.414;2024-02-26T00:28:48;45.33;;;19.55;;
68192;SDS011;55012;47.562;18.414;2024-02-26T00:31:13;48.33;;;21.88;;
68192;SDS011;55012;47.562;18.414;2024-02-26T00:33:38;49.92;;;23.38;;
68192;SDS011;55012;47.562;18.414;2024-02-26T00:36:04;50.95;;;22.80;;
68192;SDS011;55012;47.562;18.414;2024-02-26T00:38:30;49.55;;;23.05;;
68192;SDS011;55012;47.562;18.414;2024-02-26T00:40:55;45.92;;;22.23;;
68192;SDS011;55012;47.562;18.414;2024-02-26T00:43:20;48.28;;;22.38;;
68192;SDS011;55012;47.562;18.414;2024-02-26T00:45:46;48.22;;;22.98;;
68192;SDS011;55012;47.562;18.414;2024-02-26T00:48:12;44.20;;;20.75;;
68192;SDS011;55012;47.562;18.414;2024-02-26T00:50:38;44.70;;;20.77;;
68192;SDS011;55012;47.562;18.414;2024-02-26T00:53:04;48.33;;;21.50;;
68192;SDS011;55012;47.562;18.414;2024-02-26T00:55:29;46.05;;;21.15;;
68192;SDS011;55012;47.562;18.414;2024-02-26T00:57:55;45.42;;;20.45;;
68192;SDS011;55012;47.562;18.414;2024-02-26T01:00:20;43.78;;;20.55;;
68192;SDS011;55012;47.562;18.414;2024-02-26T01:02:46;41.60;;;19.27;;
68192;SDS011;55012;47.562;18.414;2024-02-26T01:05:11;43.00;;;18.75;;
68192;SDS011;55012;47.562;18.414;2024-02-26T01:07:37;41.92;;;18.13;;
68192;SDS011;55012;47.562;18.414;2024-02-26T01:10:03;39.17;;;17.08;;
68192;SDS011;55012;47.562;18.414;2024-02-26T01:12:28;39.00;;;17.40;;
68192;SDS011;55012;47.562;18.414;2024-02-26T01:14:54;43.20;;;17.88;;
68192;SDS011;55012;47.562;18.414;2024-02-26T01:17:20;43.42;;;18.65;;
68192;SDS011;55012;47.562;18.414;2024-02-26T01:19:45;42.28;;;17.83;;
68192;SDS011;55012;47.562;18.414;2024-02-26T01:22:11;42.47;;;18.02;;
68192;SDS011;55012;47.562;18.414;2024-02-26T01:24:36;41.35;;;18.13;;
68192;SDS011;55012;47.562;18.414;2024-02-26T01:27:01;42.78;;;18.23;;
68192;SDS011;55012;47.562;18.414;2024-02-26T01:29:27;45.22;;;18.33;;
68192;SDS011;55012;47.562;18.414;2024-02-26T01:31:52;41.83;;;17.88;;
68192;SDS011;55012;47.562;18.414;2024-02-26T01:34:17;43.15;;;18.33;;
68192;SDS011;55012;47.562;18.414;2024-02-26T01:36:43;43.80;;;18.50;;
68192;SDS011;55012;47.562;18.414;2024-02-26T01:39:09;47.50;;;18.48;;
68192;SDS011;55012;47.562;18.414;2024-02-26T01:41:37;45.30;;;18.85;;
68192;SDS011;55012;47.562;18.414;2024-02-26T01:44:03;51.58;;;19.88;;
68192;SDS011;55012;47.562;18.414;2024-02-26T01:46:29;48.88;;;20.10;;
68192;SDS011;55012;47.562;18.414;2024-02-26T01:48:55;51.05;;;21.10;;
68192;SDS011;55012;47.562;18.414;2024-02-26T01:51:21;53.42;;;20.40;;
68192;SDS011;55012;47.562;18.414;2024-02-26T01:53:47;53.20;;;19.85;;
68192;SDS011;55012;47.562;18.414;2024-02-26T01:56:13;46.47;;;17.58;;
68192;SDS011;55012;47.562;18.414;2024-02-26T01:58:40;45.22;;;18.75;;
68192;SDS011;55012;47.562;18.414;2024-02-26T02:01:06;49.40;;;19.35;;
68192;SDS011;55012;47.562;18.414;2024-02-26T02:03:32;45.65;;;19.45;;
68192;SDS011;55012;47.562;18.414;2024-02-26T02:05:58;45.58;;;19.05;;
68192;SDS011;55012;47.562;18.414;2024-02-26T02:08:24;49.95;;;19.50;;
68192;SDS011;55012;47.562;18.414;2024-02-26T02:10:50;47.13;;;18.50;;
68192;SDS011;55012;47.562;18.414;2024-02-26T02:13:15;47.67;;;19.45;;
68192;SDS011;55012;47.562;18.414;2024-02-26T02:15:41;47.30;;;18.85;;
68192;SDS011;55012;47.562;18.414;2024-02-26T02:18:06;48.47;;;18.98;;
68192;SDS011;55012;47.562;18.414;2024-02-26T02:20:32;47.65;;;19.25;;
68192;SDS011;55012;47.562;18.414;2024-02-26T02:22:58;48.38;;;20.40;;
68192;SDS011;55012;47.562;18.414;2024-02-26T02:25:24;47.28;;;20.17;;
68192;SDS011;55012;47.562;18.414;2024-02-26T02:27:50;51.70;;;20.85;;
68192;SDS011;55012;47.562;18.414;2024-02-26T02:30:16;50.92;;;19.80;;
68192;SDS011;55012;47.562;18.414;2024-02-26T02:32:42;50.13;;;19.73;;
68192;SDS011;55012;47.562;18.414;2024-02-26T02:35:08;46.22;;;18.63;;
68192;SDS011;55012;47.562;18.414;2024-02-26T02:37:34;42.80;;;18.33;;
68192;SDS011;55012;47.562;18.414;2024-02-26T02:39:59;45.17;;;18.02;;
68192;SDS011;55012;47.562;18.414;2024-02-26T02:42:25;40.95;;;17.48;;
68192;SDS011;55012;47.562;18.414;2024-02-26T02:44:51;43.45;;;16.95;;
68192;SDS011;55012;47.562;18.414;2024-02-26T02:47:16;41.40;;;17.35;;
68192;SDS011;55012;47.562;18.414;2024-02-26T02:49:42;43.53;;;17.70;;
68192;SDS011;55012;47.562;18.414;2024-02-26T02:52:07;39.88;;;15.98;;
68192;SDS011;55012;47.562;18.414;2024-02-26T02:54:32;39.92;;;16.27;;
68192;SDS011;55012;47.562;18.414;2024-02-26T02:56:58;40.35;;;17.15;;
68192;SDS011;55012;47.562;18.414;2024-02-26T02:59:23;39.00;;;15.63;;
68192;SDS011;55012;47.562;18.414;2024-02-26T03:01:49;39.65;;;16.40;;
68192;SDS011;55012;47.562;18.414;2024-02-26T03:04:14;41.72;;;16.73;;
68192;SDS011;55012;47.562;18.414;2024-02-26T03:06:39;37.70;;;15.70;;
68192;SDS011;55012;47.562;18.414;2024-02-26T03:09:05;44.67;;;18.27;;
68192;SDS011;55012;47.562;18.414;2024-02-26T03:11:30;42.22;;;17.35;;
68192;SDS011;55012;47.562;18.414;2024-02-26T03:13:56;39.40;;;15.95;;
68192;SDS011;55012;47.562;18.414;2024-02-26T03:16:21;40.03;;;16.30;;
68192;SDS011;55012;47.562;18.414;2024-02-26T03:18:46;37.17;;;15.45;;
68192;SDS011;55012;47.562;18.414;2024-02-26T03:21:12;40.83;;;17.08;;
68192;SDS011;55012;47.562;18.414;2024-02-26T03:23:37;39.42;;;15.57;;
68192;SDS011;55012;47.562;18.414;2024-02-26T03:26:03;35.08;;;14.95;;
68192;SDS011;55012;47.562;18.414;2024-02-26T03:28:29;35.15;;;15.32;;
68192;SDS011;55012;47.562;18.414;2024-02-26T03:30:55;34.35;;;15.07;;
68192;SDS011;55012;47.562;18.414;2024-02-26T03:33:21;31.48;;;14.75;;
68192;SDS011;55012;47.562;18.414;2024-02-26T03:35:46;33.75;;;14.80;;
68192;SDS011;55012;47.562;18.414;2024-02-26T03:38:12;34.42;;;14.32;;
68192;SDS011;55012;47.562;18.414;2024-02-26T03:40:38;34.05;;;14.23;;
68192;SDS011;55012;47.562;18.414;2024-02-26T03:43:03;33.88;;;14.20;;
68192;SDS011;55012;47.562;18.414;2024-02-26T03:45:32;34.65;;;14.38;;
68192;SDS011;55012;47.562;18.414;2024-02-26T03:47:57;36.88;;;14.93;;
68192;SDS011;55012;47.562;18.414;2024-02-26T03:50:22;34.20;;;15.20;;
68192;SDS011;55012;47.562;18.414;2024-02-26T03:52:48;33.70;;;15.15;;
68192;SDS011;55012;47.562;18.414;2024-02-26T03:55:13;41.28;;;16.13;;
68192;SDS011;55012;47.562;18.414;2024-02-26T03:57:39;45.60;;;17.45;;
68192;SDS011;55012;47.562;18.414;2024-02-26T04:00:04;46.03;;;17.75;;
68192;SDS011;55012;47.562;18.414;2024-02-26T04:02:31;44.90;;;17.42;;
68192;SDS011;55012;47.562;18.414;2024-02-26T04:04:56;47.45;;;17.38;;
68192;SDS011;55012;47.562;18.414;2024-02-26T04:07:22;49.08;;;18.73;;
68192;SDS011;55012;47.562;18.414;2024-02-26T04:09:47;47.40;;;17.90;;
68192;SDS011;55012;47.562;18.414;2024-02-26T04:12:13;50.72;;;18.80;;
68192;SDS011;55012;47.562;18.414;2024-02-26T04:14:38;54.33;;;19.23;;
68192;SDS011;55012;47.562;18.414;2024-02-26T04:17:04;57.17;;;20.05;;
68192;SDS011;55012;47.562;18.414;2024-02-26T04:19:29;54.83;;;20.27;;
68192;SDS011;55012;47.562;18.414;2024-02-26T04:21:55;55.03;;;20.52;;
68192;SDS011;55012;47.562;18.414;2024-02-26T04:24:20;55.05;;;20.00;;
68192;SDS011;55012;47.562;18.414;2024-02-26T04:26:45;55.88;;;20.33;;
68192;SDS011;55012;47.562;18.414;2024-02-26T04:29:11;56.13;;;20.73;;
68192;SDS011;55012;47.562;18.414;2024-02-26T04:31:37;55.28;;;21.33;;
68192;SDS011;55012;47.562;18.414;2024-02-26T04:34:03;62.33;;;22.30;;
68192;SDS011;55012;47.562;18.414;2024-02-26T04:36:28;59.90;;;21.42;;
68192;SDS011;55012;47.562;18.414;2024-02-26T04:38:53;58.25;;;21.65;;
68192;SDS011;55012;47.562;18.414;2024-02-26T04:41:22;58.40;;;21.63;;
68192;SDS011;55012;47.562;18.414;2024-02-26T04:43:47;56.38;;;20.65;;
68192;SDS011;55012;47.562;18.414;2024-02-26T04:46:12;59.83;;;20.92;;
68192;SDS011;55012;47.562;18.414;2024-02-26T04:48:38;61.15;;;21.80;;
68192;SDS011;55012;47.562;18.414;2024-02-26T04:51:04;59.28;;;21.13;;
68192;SDS011;55012;47.562;18.414;2024-02-26T04:53:30;57.65;;;20.63;;
68192;SDS011;55012;47.562;18.414;2024-02-26T04:55:55;58.65;;;21.17;;
68192;SDS011;55012;47.562;18.414;2024-02-26T04:58:21;61.25;;;22.65;;
68192;SDS011;55012;47.562;18.414;2024-02-26T05:00:46;62.67;;;22.50;;
68192;SDS011;55012;47.562;18.414;2024-02-26T05:03:11;61.45;;;21.63;;
68192;SDS011;55012;47.562;18.414;2024-02-26T05:05:38;61.63;;;22.13;;
68192;SDS011;55012;47.562;18.414;2024-02-26T05:08:04;62.38;;;21.98;;
68192;SDS011;55012;47.562;18.414;2024-02-26T05:10:30;64.18;;;21.77;;
68192;SDS011;55012;47.562;18.414;2024-02-26T05:12:55;60.97;;;22.23;;
68192;SDS011;55012;47.562;18.414;2024-02-26T05:15:21;68.28;;;23.52;;
68192;SDS011;55012;47.562;18.414;2024-02-26T05:17:46;70.60;;;23.75;;
68192;SDS011;55012;47.562;18.414;2024-02-26T05:20:11;69.47;;;24.08;;
68192;SDS011;55012;47.562;18.414;2024-02-26T05:22:37;71.40;;;24.65;;
68192;SDS011;55012;47.562;18.414;2024-02-26T05:25:02;72.85;;;25.00;;
68192;SDS011;55012;47.562;18.414;2024-02-26T05:27:28;72.78;;;24.92;;
68192;SDS011;55012;47.562;18.414;2024-02-26T05:29:53;68.85;;;24.92;;
68192;SDS011;55012;47.562;18.414;2024-02-26T05:32:19;67.25;;;23.65;;
68192;SDS011;55012;47.562;18.414;2024-02-26T05:34:44;63.42;;;24.50;;
68192;SDS011;55012;47.562;18.414;2024-02-26T05:37:10;67.28;;;24.45;;
68192;SDS011;55012;47.562;18.414;2024-02-26T05:39:35;62.00;;;23.20;;
68192;SDS011;55012;47.562;18.414;2024-02-26T05:42:00;62.13;;;23.85;;
68192;SDS011;55012;47.562;18.414;2024-02-26T05:44:26;62.92;;;24.75;;
68192;SDS011;55012;47.562;18.414;2024-02-26T05:46:52;60.05;;;24.10;;
68192;SDS011;55012;47.562;18.414;2024-02-26T05:49:18;63.45;;;24.25;;
68192;SDS011;55012;47.562;18.414;2024-02-26T05:51:43;63.97;;;24.15;;
68192;SDS011;55012;47.562;18.414;2024-02-26T05:54:09;58.13;;;22.75;;
68192;SDS011;55012;47.562;18.414;2024-02-26T05:56:35;58.65;;;23.27;;
68192;SDS011;55012;47.562;18.414;2024-02-26T05:59:00;61.47;;;25.23;;
68192;SDS011;55012;47.562;18.414;2024-02-26T06:01:25;61.92;;;24.77;;
68192;SDS011;55012;47.562;18.414;2024-02-26T06:03:51;60.85;;;24.42;;
68192;SDS011;55012;47.562;18.414;2024-02-26T06:06:17;55.30;;;23.15;;
68192;SDS011;55012;47.562;18.414;2024-02-26T06:08:42;53.60;;;21.98;;
68192;SDS011;55012;47.562;18.414;2024-02-26T06:11:08;55.05;;;21.73;;
68192;SDS011;55012;47.562;18.414;2024-02-26T06:13:34;53.38;;;22.63;;
68192;SDS011;55012;47.562;18.414;2024-02-26T06:16:00;52.55;;;22.02;;
68192;SDS011;55012;47.562;18.414;2024-02-26T06:18:25;48.50;;;20.80;;
68192;SDS011;55012;47.562;18.414;2024-02-26T06:20:50;52.92;;;22.00;;
68192;SDS011;55012;47.562;18.414;2024-02-26T06:23:16;53.33;;;21.65;;
68192;SDS011;55012;47.562;18.414;2024-02-26T06:25:41;47.10;;;21.20;;
68192;SDS011;55012;47.562;18.414;2024-02-26T06:28:07;47.88;;;21.15;;
68192;SDS011;55012;47.562;18.414;2024-02-26T06:30:33;50.78;;;22.10;;
68192;SDS011;55012;47.562;18.414;2024-02-26T06:32:59;54.55;;;23.52;;
68192;SDS011;55012;47.562;18.414;2024-02-26T06:35:25;53.97;;;23.42;;
68192;SDS011;55012;47.562;18.414;2024-02-26T06:37:50;53.20;;;22.35;;
68192;SDS011;55012;47.562;18.414;2024-02-26T06:40:18;53.53;;;23.13;;
68192;SDS011;55012;47.562;18.414;2024-02-26T06:42:45;50.30;;;22.85;;
68192;SDS011;55012;47.562;18.414;2024-02-26T06:45:10;52.17;;;23.33;;
68192;SDS011;55012;47.562;18.414;2024-02-26T06:47:35;50.30;;;22.75;;
68192;SDS011;55012;47.562;18.414;2024-02-26T06:50:01;52.25;;;23.40;;
68192;SDS011;55012;47.562;18.414;2024-02-26T06:52:26;54.00;;;23.25;;
68192;SDS011;55012;47.562;18.414;2024-02-26T06:54:52;55.53;;;23.17;;
68192;SDS011;55012;47.562;18.414;2024-02-26T06:57:20;49.70;;;23.00;;
68192;SDS011;55012;47.562;18.414;2024-02-26T06:59:46;47.97;;;21.73;;
68192;SDS011;55012;47.562;18.414;2024-02-26T07:02:12;49.10;;;21.92;;
68192;SDS011;55012;47.562;18.414;2024-02-26T07:04:38;49.80;;;20.83;;
68192;SDS011;55012;47.562;18.414;2024-02-26T07:07:04;50.22;;;21.17;;
68192;SDS011;55012;47.562;18.414;2024-02-26T07:09:29;45.78;;;20.38;;
68192;SDS011;55012;47.562;18.414;2024-02-26T07:11:55;51.17;;;19.88;;
68192;SDS011;55012;47.562;18.414;2024-02-26T07:14:20;46.08;;;20.05;;
68192;SDS011;55012;47.562;18.414;2024-02-26T07:16:45;45.58;;;19.55;;
68192;SDS011;55012;47.562;18.414;2024-02-26T07:19:11;55.67;;;20.45;;
68192;SDS011;55012;47.562;18.414;2024-02-26T07:21:36;43.78;;;19.48;;
68192;SDS011;55012;47.562;18.414;2024-02-26T07:24:02;46.03;;;20.00;;
68192;SDS011;55012;47.562;18.414;2024-02-26T07:26:27;48.88;;;19.92;;
68192;SDS011;55012;47.562;18.414;2024-02-26T07:28:54;46.00;;;19.55;;
68192;SDS011;55012;47.562;18.414;2024-02-26T07:31:20;46.55;;;20.08;;
68192;SDS011;55012;47.562;18.414;2024-02-26T07:33:45;41.65;;;18.50;;
68192;SDS011;55012;47.562;18.414;2024-02-26T07:36:11;46.15;;;18.92;;
68192;SDS011;55012;47.562;18.414;2024-02-26T07:38:36;46.35;;;18.63;;
68192;SDS011;55012;47.562;18.414;2024-02-26T07:41:02;50.08;;;19.05;;
68192;SDS011;55012;47.562;18.414;2024-02-26T07:43:27;50.35;;;20.05;;
68192;SDS011;55012;47.562;18.414;2024-02-26T07:45:53;44.55;;;19.02;;
68192;SDS011;55012;47.562;18.414;2024-02-26T07:48:18;47.35;;;19.15;;
68192;SDS011;55012;47.562;18.414;2024-02-26T07:50:44;48.20;;;20.10;;
68192;SDS011;55012;47.562;18.414;2024-02-26T07:53:09;48.28;;;20.10;;
68192;SDS011;55012;47.562;18.414;2024-02-26T07:55:35;45.38;;;19.40;;
68192;SDS011;55012;47.562;18.414;2024-02-26T07:58:00;46.22;;;21.15;;
68192;SDS011;55012;47.562;18.414;2024-02-26T08:00:25;45.25;;;20.02;;
68192;SDS011;55012;47.562;18.414;2024-02-26T08:02:51;48.15;;;20.55;;
68192;SDS011;55012;47.562;18.414;2024-02-26T08:05:16;47.80;;;20.48;;
68192;SDS011;55012;47.562;18.414;2024-02-26T08:07:42;48.40;;;21.17;;
68192;SDS011;55012;47.562;18.414;2024-02-26T08:10:07;51.80;;;21.67;;
68192;SDS011;55012;47.562;18.414;2024-02-26T08:12:33;48.17;;;21.77;;
68192;SDS011;55012;47.562;18.414;2024-02-26T08:14:58;49.55;;;21.20;;
68192;SDS011;55012;47.562;18.414;2024-02-26T08:17:25;54.75;;;22.15;;
68192;SDS011;55012;47.562;18.414;2024-02-26T08:19:50;48.53;;;21.20;;
68192;SDS011;55012;47.562;18.414;2024-02-26T08:22:16;46.00;;;20.77;;
68192;SDS011;55012;47.562;18.414;2024-02-26T08:24:42;46.55;;;20.52;;
68192;SDS011;55012;47.562;18.414;2024-02-26T08:27:08;45.85;;;21.35;;
68192;SDS011;55012;47.562;18.414;2024-02-26T08:29:34;48.70;;;21.70;;
68192;SDS011;55012;47.562;18.414;2024-02-26T08:31:59;47.75;;;20.85;;
68192;SDS011;55012;47.562;18.414;2024-02-26T08:34:24;47.20;;;21.05;;
68192;SDS011;55012;47.562;18.414;2024-02-26T08:36:50;44.08;;;20.35;;
68192;SDS011;55012;47.562;18.414;2024-02-26T08:39:16;47.17;;;22.20;;
68192;SDS011;55012;47.562;18.414;2024-02-26T08:41:42;44.08;;;20.92;;
68192;SDS011;55012;47.562;18.414;2024-02-26T08:44:08;45.20;;;21.08;;
68192;SDS011;55012;47.562;18.414;2024-02-26T08:46:34;44.70;;;20.63;;
68192;SDS011;55012;47.562;18.414;2024-02-26T08:48:59;43.65;;;20.67;;
68192;SDS011;55012;47.562;18.414;2024-02-26T08:51:25;43.05;;;20.80;;
68192;SDS011;55012;47.562;18.414;2024-02-26T08:53:50;43.05;;;20.58;;
68192;SDS011;55012;47.562;18.414;2024-02-26T08:56:16;42.50;;;20.30;;
68192;SDS011;55012;47.562;18.414;2024-02-26T08:58:42;42.92;;;21.33;;
68192;SDS011;55012;47.562;18.414;2024-02-26T09:01:08;41.08;;;21.15;;
68192;SDS011;55012;47.562;18.414;2024-02-26T09:03:34;42.55;;;21.63;;
68192;SDS011;55012;47.562;18.414;2024-02-26T09:05:59;40.92;;;19.75;;
68192;SDS011;55012;47.562;18.414;2024-02-26T09:08:25;40.88;;;21.58;;
68192;SDS011;55012;47.562;18.414;2024-02-26T09:10:50;41.80;;;22.15;;
68192;SDS011;55012;47.562;18.414;2024-02-26T09:13:16;37.78;;;20.13;;
68192;SDS011;55012;47.562;18.414;2024-02-26T09:15:41;40.50;;;21.40;;
68192;SDS011;55012;47.562;18.414;2024-02-26T09:18:06;44.15;;;21.88;;
68192;SDS011;55012;47.562;18.414;2024-02-26T09:20:32;41.88;;;21.02;;
68192;SDS011;55012;47.562;18.414;2024-02-26T09:22:57;45.47;;;22.25;;
68192;SDS011;55012;47.562;18.414;2024-02-26T09:25:22;46.33;;;22.23;;
68192;SDS011;55012;47.562;18.414;2024-02-26T09:27:48;39.55;;;20.40;;
68192;SDS011;55012;47.562;18.414;2024-02-26T09:30:13;40.83;;;20.55;;
68192;SDS011;55012;47.562;18.414;2024-02-26T09:32:39;41.22;;;21.92;;
68192;SDS011;55012;47.562;18.414;2024-02-26T09:35:05;38.90;;;19.35;;
68192;SDS011;55012;47.562;18.414;2024-02-26T09:37:31;36.38;;;19.27;;
68192;SDS011;55012;47.562;18.414;2024-02-26T09:39:57;36.03;;;19.60;;
68192;SDS011;55012;47.562;18.414;2024-02-26T09:42:24;35.15;;;19.23;;
68192;SDS011;55012;47.562;18.414;2024-02-26T09:44:51;31.75;;;18.50;;
68192;SDS011;55012;47.562;18.414;2024-02-26T09:47:20;31.10;;;17.55;;
68192;SDS011;55012;47.562;18.414;2024-02-26T09:49:48;28.48;;;16.90;;
68192;SDS011;55012;47.562;18.414;2024-02-26T09:52:14;27.02;;;15.93;;
68192;SDS011;55012;47.562;18.414;2024-02-26T09:54:40;28.85;;;16.25;;
68192;SDS011;55012;47.562;18.414;2024-02-26T09:57:06;24.95;;;15.02;;
68192;SDS011;55012;47.562;18.414;2024-02-26T09:59:39;26.02;;;15.35;;
68192;SDS011;55012;47.562;18.414;2024-02-26T10:02:08;20.23;;;13.18;;
68192;SDS011;55012;47.562;18.414;2024-02-26T10:04:36;21.77;;;13.35;;
68192;SDS011;55012;47.562;18.414;2024-02-26T10:07:02;14.95;;;10.05;;
68192;SDS011;55012;47.562;18.414;2024-02-26T10:09:29;15.98;;;10.15;;
68192;SDS011;55012;47.562;18.414;2024-02-26T10:11:56;13.98;;;8.93;;
68192;SDS011;55012;47.562;18.414;2024-02-26T10:14:22;13.82;;;8.50;;
68192;SDS011;55012;47.562;18.414;2024-02-26T10:16:48;17.38;;;9.60;;
68192;SDS011;55012;47.562;18.414;2024-02-26T10:19:27;17.52;;;9.90;;
68192;SDS011;55012;47.562;18.414;2024-02-26T10:21:57;14.57;;;9.00;;
68192;SDS011;55012;47.562;18.414;2024-02-26T10:24:24;14.98;;;8.95;;
68192;SDS011;55012;47.562;18.414;2024-02-26T10:26:50;15.50;;;8.80;;
68192;SDS011;55012;47.562;18.414;2024-02-26T10:29:20;15.07;;;8.70;;
68192;SDS011;55012;47.562;18.414;2024-02-26T10:31:46;11.65;;;7.18;;
68192;SDS011;55012;47.562;18.414;2024-02-26T10:34:12;10.00;;;6.20;;
68192;SDS011;55012;47.562;18.414;2024-02-26T10:36:38;11.05;;;6.28;;
68192;SDS011;55012;47.562;18.414;2024-02-26T10:39:06;9.80;;;6.13;;
68192;SDS011;55012;47.562;18.414;2024-02-26T10:41:32;10.10;;;6.50;;
68192;SDS011;55012;47.562;18.414;2024-02-26T10:43:59;9.95;;;5.57;;
68192;SDS011;55012;47.562;18.414;2024-02-26T10:46:25;12.00;;;6.10;;
68192;SDS011;55012;47.562;18.414;2024-02-26T10:48:51;13.13;;;7.05;;
68192;SDS011;55012;47.562;18.414;2024-02-26T10:51:20;9.00;;;5.38;;
68192;SDS011;55012;47.562;18.414;2024-02-26T10:53:53;10.77;;;6.32;;
68192;SDS011;55012;47.562;18.414;2024-02-26T10:56:24;10.95;;;6.05;;
68192;SDS011;55012;47.562;18.414;2024-02-26T10:58:50;9.80;;;5.55;;
68192;SDS011;55012;47.562;18.414;2024-02-26T11:01:17;10.48;;;6.57;;
68192;SDS011;55012;47.562;18.414;2024-02-26T11:03:44;8.48;;;5.20;;
68192;SDS011;55012;47.562;18.414;2024-02-26T11:06:10;11.40;;;5.10;;
68192;SDS011;55012;47.562;18.414;2024-02-26T11:08:37;9.38;;;5.00;;
68192;SDS011;55012;47.562;18.414;2024-02-26T11:11:03;8.43;;;4.70;;
68192;SDS011;55012;47.562;18.414;2024-02-26T11:13:30;7.38;;;4.70;;
68192;SDS011;55012;47.562;18.414;2024-02-26T11:15:56;7.18;;;4.10;;
68192;SDS011;55012;47.562;18.414;2024-02-26T11:18:25;6.90;;;4.00;;
68192;SDS011;55012;47.562;18.414;2024-02-26T11:20:52;6.40;;;3.65;;
68192;SDS011;55012;47.562;18.414;2024-02-26T11:23:22;9.13;;;4.00;;
68192;SDS011;55012;47.562;18.414;2024-02-26T11:25:48;5.53;;;3.45;;
68192;SDS011;55012;47.562;18.414;2024-02-26T11:28:16;6.53;;;3.92;;
68192;SDS011;55012;47.562;18.414;2024-02-26T11:30:45;6.25;;;3.75;;
68192;SDS011;55012;47.562;18.414;2024-02-26T11:33:13;6.88;;;4.25;;
68192;SDS011;55012;47.562;18.414;2024-02-26T11:35:40;6.35;;;3.25;;
68192;SDS011;55012;47.562;18.414;2024-02-26T11:38:05;4.90;;;3.08;;
68192;SDS011;55012;47.562;18.414;2024-02-26T11:40:32;6.88;;;3.38;;
68192;SDS011;55012;47.562;18.414;2024-02-26T11:42:59;5.90;;;3.05;;
68192;SDS011;55012;47.562;18.414;2024-02-26T11:48:26;7.15;;;3.42;;
68192;SDS011;55012;47.562;18.414;2024-02-26T11:50:53;6.53;;;2.70;;
68192;SDS011;55012;47.562;18.414;2024-02-26T11:53:24;4.38;;;2.20;;
68192;SDS011;55012;47.562;18.414;2024-02-26T11:58:40;7.15;;;4.15;;
68192;SDS011;55012;47.562;18.414;2024-02-26T12:01:35;4.70;;;2.60;;
68192;SDS011;55012;47.562;18.414;2024-02-26T12:04:07;7.25;;;2.17;;
68192;SDS011;55012;47.562;18.414;2024-02-26T12:12:09;3.53;;;2.30;;
68192;SDS011;55012;47.562;18.414;2024-02-26T12:14:52;5.38;;;2.20;;
68192;SDS011;55012;47.562;18.414;2024-02-26T12:17:22;4.03;;;2.10;;
68192;SDS011;55012;47.562;18.414;2024-02-26T12:19:48;3.85;;;2.55;;
68192;SDS011;55012;47.562;18.414;2024-02-26T12:22:15;5.90;;;3.17;;
68192;SDS011;55012;47.562;18.414;2024-02-26T12:24:41;8.18;;;3.33;;
68192;SDS011;55012;47.562;18.414;2024-02-26T12:27:07;7.07;;;3.22;;
68192;SDS011;55012;47.562;18.414;2024-02-26T12:29:32;4.57;;;2.88;;
68192;SDS011;55012;47.562;18.414;2024-02-26T12:31:58;6.72;;;2.95;;
68192;SDS011;55012;47.562;18.414;2024-02-26T12:34:23;3.67;;;2.80;;
68192;SDS011;55012;47.562;18.414;2024-02-26T12:36:49;5.43;;;2.95;;
68192;SDS011;55012;47.562;18.414;2024-02-26T12:39:14;5.57;;;3.30;;
68192;SDS011;55012;47.562;18.414;2024-02-26T12:41:40;7.50;;;3.90;;
68192;SDS011;55012;47.562;18.414;2024-02-26T12:44:07;6.30;;;3.97;;
68192;SDS011;55012;47.562;18.414;2024-02-26T12:46:33;7.60;;;4.18;;
68192;SDS011;55012;47.562;18.414;2024-02-26T12:49:01;7.60;;;4.63;;
68192;SDS011;55012;47.562;18.414;2024-02-26T12:51:27;10.32;;;4.90;;
68192;SDS011;55012;47.562;18.414;2024-02-26T12:53:54;7.57;;;5.00;;
68192;SDS011;55012;47.562;18.414;2024-02-26T12:56:21;8.13;;;5.00;;
68192;SDS011;55012;47.562;18.414;2024-02-26T12:58:48;8.35;;;4.97;;
68192;SDS011;55012;47.562;18.414;2024-02-26T13:01:17;7.72;;;5.00;;
68192;SDS011;55012;47.562;18.414;2024-02-26T13:03:45;8.50;;;5.05;;
68192;SDS011;55012;47.562;18.414;2024-02-26T13:06:10;7.53;;;5.15;;
68192;SDS011;55012;47.562;18.414;2024-02-26T13:08:36;9.90;;;5.65;;
68192;SDS011;55012;47.562;18.414;2024-02-26T13:11:02;10.98;;;5.75;;
68192;SDS011;55012;47.562;18.414;2024-02-26T13:13:27;11.55;;;6.28;;
68192;SDS011;55012;47.562;18.414;2024-02-26T13:16:05;10.25;;;6.40;;
68192;SDS011;55012;47.562;18.414;2024-02-26T13:18:33;10.48;;;6.10;;
68192;SDS011;55012;47.562;18.414;2024-02-26T13:21:12;9.93;;;6.63;;
68192;SDS011;55012;47.562;18.414;2024-02-26T13:23:39;9.68;;;6.47;;
68192;SDS011;55012;47.562;18.414;2024-02-26T13:26:05;9.07;;;5.93;;
68192;SDS011;55012;47.562;18.414;2024-02-26T13:28:31;11.63;;;6.13;;
68192;SDS011;55012;47.562;18.414;2024-02-26T13:30:58;22.35;;;6.30;;
68192;SDS011;55012;47.562;18.414;2024-02-26T13:33:25;10.25;;;6.38;;
68192;SDS011;55012;47.562;18.414;2024-02-26T13:35:52;9.15;;;6.18;;
68192;SDS011;55012;47.562;18.414;2024-02-26T13:38:18;9.05;;;6.57;;
68192;SDS011;55012;47.562;18.414;2024-02-26T13:40:43;10.38;;;6.90;;
68192;SDS011;55012;47.562;18.414;2024-02-26T13:43:09;10.88;;;6.97;;
68192;SDS011;55012;47.562;18.414;2024-02-26T13:45:35;12.38;;;7.80;;
68192;SDS011;55012;47.562;18.414;2024-02-26T13:48:02;9.95;;;7.03;;
68192;SDS011;55012;47.562;18.414;2024-02-26T13:50:29;10.45;;;7.28;;
68192;SDS011;55012;47.562;18.414;2024-02-26T13:52:54;10.13;;;6.78;;
68192;SDS011;55012;47.562;18.414;2024-02-26T13:55:21;9.52;;;6.75;;
68192;SDS011;55012;47.562;18.414;2024-02-26T13:57:49;10.73;;;7.05;;
68192;SDS011;55012;47.562;18.414;2024-02-26T14:00:16;11.32;;;6.70;;
68192;SDS011;55012;47.562;18.414;2024-02-26T14:02:42;9.68;;;6.65;;
68192;SDS011;55012;47.562;18.414;2024-02-26T14:05:08;8.98;;;6.82;;
68192;SDS011;55012;47.562;18.414;2024-02-26T14:07:33;10.55;;;6.65;;
68192;SDS011;55012;47.562;18.414;2024-02-26T14:09:58;9.93;;;6.72;;
68192;SDS011;55012;47.562;18.414;2024-02-26T14:12:24;9.38;;;6.50;;
68192;SDS011;55012;47.562;18.414;2024-02-26T14:14:49;11.07;;;7.43;;
68192;SDS011;55012;47.562;18.414;2024-02-26T14:17:15;9.95;;;7.20;;
68192;SDS011;55012;47.562;18.414;2024-02-26T14:19:41;10.60;;;7.15;;